Terminal Aerodrome Forecast
Issued by NWS

Home | Current Version | Previous Version | Text Only | Print | Product List | Glossary On
Versions: 1 2 3 4 5 6 7 8 9 10 11 12 13 14 15 16 17 18 19 20 21 22 23 24
000
FTUS44 KLUB 260520
TAFCDS
TAF
KCDS 260520Z 2606/2706 23008KT P6SM SKC
     FM261200 08007KT P6SM FEW100
     FM262000 10013KT P6SM SCT050 SCT250 PROB30 2621/2703 6SM TSRA
      BKN050CB=

USA.gov is the U.S. government's official web portal to all federal, state and local government web resources and services.